sensor_id;sensor_type;location;lat;lon;timestamp;temperature;humidity
4431;DHT22;2228;48.140;11.488;2023-11-19T00:00:48;6.00;99.90
4431;DHT22;2228;48.140;11.488;2023-11-19T00:03:15;6.80;99.90
4431;DHT22;2228;48.140;11.488;2023-11-19T00:05:43;6.00;99.90
4431;DHT22;2228;48.140;11.488;2023-11-19T00:08:10;6.00;1.00
4431;DHT22;2228;48.140;11.488;2023-11-19T00:10:37;6.10;1.00
4431;DHT22;2228;48.140;11.488;2023-11-19T00:13:04;6.10;99.90
4431;DHT22;2228;48.140;11.488;2023-11-19T00:15:33;6.20;99.90
4431;DHT22;2228;48.140;11.488;2023-11-19T00:18:02;7.20;1.00
4431;DHT22;2228;48.140;11.488;2023-11-19T00:20:30;6.10;99.90
4431;DHT22;2228;48.140;11.488;2023-11-19T00:23:00;6.00;1.00
4431;DHT22;2228;48.140;11.488;2023-11-19T00:25:28;6.00;1.00
4431;DHT22;2228;48.140;11.488;2023-11-19T00:27:57;6.20;1.00
4431;DHT22;2228;48.140;11.488;2023-11-19T00:30:27;6.20;1.00
4431;DHT22;2228;48.140;11.488;2023-11-19T00:32:56;6.20;1.00
4431;DHT22;2228;48.140;11.488;2023-11-19T00:35:25;6.30;1.00
4431;DHT22;2228;48.140;11.488;2023-11-19T00:37:54;6.60;1.00
4431;DHT22;2228;48.140;11.488;2023-11-19T00:40:21;8.20;1.00
4431;DHT22;2228;48.140;11.488;2023-11-19T00:42:49;6.50;1.00
4431;DHT22;2228;48.140;11.488;2023-11-19T00:45:17;6.40;1.00
4431;DHT22;2228;48.140;11.488;2023-11-19T00:47:44;6.40;1.00
4431;DHT22;2228;48.140;11.488;2023-11-19T00:50:11;8.20;1.00
4431;DHT22;2228;48.140;11.488;2023-11-19T00:52:41;6.50;1.00
4431;DHT22;2228;48.140;11.488;2023-11-19T00:55:08;6.70;1.00
4431;DHT22;2228;48.140;11.488;2023-11-19T00:57:37;7.20;1.00
4431;DHT22;2228;48.140;11.488;2023-11-19T01:00:05;7.90;1.00
4431;DHT22;2228;48.140;11.488;2023-11-19T01:02:43;6.50;1.00
4431;DHT22;2228;48.140;11.488;2023-11-19T01:05:12;6.50;1.00
4431;DHT22;2228;48.140;11.488;2023-11-19T01:07:43;6.60;1.00
4431;DHT22;2228;48.140;11.488;2023-11-19T01:10:10;7.20;1.00
4431;DHT22;2228;48.140;11.488;2023-11-19T01:12:37;6.80;1.00
4431;DHT22;2228;48.140;11.488;2023-11-19T01:15:06;6.80;1.00
4431;DHT22;2228;48.140;11.488;2023-11-19T01:17:33;6.90;1.00
4431;DHT22;2228;48.140;11.488;2023-11-19T01:20:01;6.90;1.00
4431;DHT22;2228;48.140;11.488;2023-11-19T01:22:31;7.50;1.00
4431;DHT22;2228;48.140;11.488;2023-11-19T01:25:01;6.80;1.00
4431;DHT22;2228;48.140;11.488;2023-11-19T01:27:31;7.00;1.00
4431;DHT22;2228;48.140;11.488;2023-11-19T01:30:00;6.70;1.00
4431;DHT22;2228;48.140;11.488;2023-11-19T01:32:29;6.70;1.00
4431;DHT22;2228;48.140;11.488;2023-11-19T01:34:56;6.60;1.00
4431;DHT22;2228;48.140;11.488;2023-11-19T01:37:23;6.60;1.00
4431;DHT22;2228;48.140;11.488;2023-11-19T01:39:50;6.70;1.00
4431;DHT22;2228;48.140;11.488;2023-11-19T01:42:18;6.70;1.00
4431;DHT22;2228;48.140;11.488;2023-11-19T01:44:56;6.70;1.00
4431;DHT22;2228;48.140;11.488;2023-11-19T01:47:24;6.70;1.00
4431;DHT22;2228;48.140;11.488;2023-11-19T01:49:52;6.80;1.00
4431;DHT22;2228;48.140;11.488;2023-11-19T01:52:19;6.90;1.00
4431;DHT22;2228;48.140;11.488;2023-11-19T01:54:47;6.90;1.00
4431;DHT22;2228;48.140;11.488;2023-11-19T01:57:14;7.00;1.00
4431;DHT22;2228;48.140;11.488;2023-11-19T01:59:43;7.20;1.00
4431;DHT22;2228;48.140;11.488;2023-11-19T02:02:11;7.70;1.00
4431;DHT22;2228;48.140;11.488;2023-11-19T02:04:38;7.30;1.00
4431;DHT22;2228;48.140;11.488;2023-11-19T02:07:06;7.30;1.00
4431;DHT22;2228;48.140;11.488;2023-11-19T02:09:34;7.40;1.00
4431;DHT22;2228;48.140;11.488;2023-11-19T02:12:01;9.40;1.00
4431;DHT22;2228;48.140;11.488;2023-11-19T02:14:28;7.80;1.00
4431;DHT22;2228;48.140;11.488;2023-11-19T02:16:57;7.60;1.00
4431;DHT22;2228;48.140;11.488;2023-11-19T02:19:24;7.70;1.00
4431;DHT22;2228;48.140;11.488;2023-11-19T02:21:51;7.70;1.00
4431;DHT22;2228;48.140;11.488;2023-11-19T02:24:21;7.80;1.00
4431;DHT22;2228;48.140;11.488;2023-11-19T02:26:53;8.20;1.00
4431;DHT22;2228;48.140;11.488;2023-11-19T02:29:25;8.00;1.00
4431;DHT22;2228;48.140;11.488;2023-11-19T02:31:52;8.10;1.00
4431;DHT22;2228;48.140;11.488;2023-11-19T02:34:20;8.20;1.00
4431;DHT22;2228;48.140;11.488;2023-11-19T02:36:48;8.20;1.00
4431;DHT22;2228;48.140;11.488;2023-11-19T02:39:15;8.50;1.00
4431;DHT22;2228;48.140;11.488;2023-11-19T02:41:47;8.30;1.00
4431;DHT22;2228;48.140;11.488;2023-11-19T02:44:16;8.50;1.00
4431;DHT22;2228;48.140;11.488;2023-11-19T02:46:45;8.50;1.00
4431;DHT22;2228;48.140;11.488;2023-11-19T02:49:14;8.50;1.00
4431;DHT22;2228;48.140;11.488;2023-11-19T02:51:41;8.50;1.00
4431;DHT22;2228;48.140;11.488;2023-11-19T02:54:08;8.60;1.00
4431;DHT22;2228;48.140;11.488;2023-11-19T02:56:35;8.60;1.00
4431;DHT22;2228;48.140;11.488;2023-11-19T02:59:04;8.60;1.00
4431;DHT22;2228;48.140;11.488;2023-11-19T03:01:40;8.90;1.00
4431;DHT22;2228;48.140;11.488;2023-11-19T03:04:10;8.60;1.00
4431;DHT22;2228;48.140;11.488;2023-11-19T03:06:42;8.90;1.00
4431;DHT22;2228;48.140;11.488;2023-11-19T03:09:09;10.60;1.00
4431;DHT22;2228;48.140;11.488;2023-11-19T03:11:36;11.30;1.00
4431;DHT22;2228;48.140;11.488;2023-11-19T03:14:03;9.60;1.00
4431;DHT22;2228;48.140;11.488;2023-11-19T03:16:30;9.20;1.00
4431;DHT22;2228;48.140;11.488;2023-11-19T03:18:58;10.10;1.00
4431;DHT22;2228;48.140;11.488;2023-11-19T03:21:31;9.20;1.00
4431;DHT22;2228;48.140;11.488;2023-11-19T03:23:58;9.30;1.00
4431;DHT22;2228;48.140;11.488;2023-11-19T03:26:26;9.40;1.00
4431;DHT22;2228;48.140;11.488;2023-11-19T03:28:53;9.50;1.00
4431;DHT22;2228;48.140;11.488;2023-11-19T03:31:21;9.50;1.00
4431;DHT22;2228;48.140;11.488;2023-11-19T03:33:48;9.70;1.00
4431;DHT22;2228;48.140;11.488;2023-11-19T03:36:15;9.60;1.00
4431;DHT22;2228;48.140;11.488;2023-11-19T03:38:43;9.70;1.00
4431;DHT22;2228;48.140;11.488;2023-11-19T03:41:10;9.80;1.00
4431;DHT22;2228;48.140;11.488;2023-11-19T03:43:38;9.80;1.00
4431;DHT22;2228;48.140;11.488;2023-11-19T03:46:15;9.90;1.00
4431;DHT22;2228;48.140;11.488;2023-11-19T03:48:41;9.90;1.00
4431;DHT22;2228;48.140;11.488;2023-11-19T03:51:09;10.70;1.00
4431;DHT22;2228;48.140;11.488;2023-11-19T03:53:37;9.90;1.00
4431;DHT22;2228;48.140;11.488;2023-11-19T03:56:06;10.00;1.00
4431;DHT22;2228;48.140;11.488;2023-11-19T03:58:34;10.00;1.00
4431;DHT22;2228;48.140;11.488;2023-11-19T04:01:04;10.00;1.00
4431;DHT22;2228;48.140;11.488;2023-11-19T04:03:31;10.00;11.10
4431;DHT22;2228;48.140;11.488;2023-11-19T04:05:59;10.70;1.00
4431;DHT22;2228;48.140;11.488;2023-11-19T04:08:27;10.00;1.00
4431;DHT22;2228;48.140;11.488;2023-11-19T04:10:55;10.20;1.00
4431;DHT22;2228;48.140;11.488;2023-11-19T04:13:24;10.70;1.00
4431;DHT22;2228;48.140;11.488;2023-11-19T04:15:51;11.70;1.00
4431;DHT22;2228;48.140;11.488;2023-11-19T04:18:19;10.70;1.00
4431;DHT22;2228;48.140;11.488;2023-11-19T04:20:47;10.20;1.00
4431;DHT22;2228;48.140;11.488;2023-11-19T04:23:16;10.20;1.00
4431;DHT22;2228;48.140;11.488;2023-11-19T04:25:45;10.30;1.00
4431;DHT22;2228;48.140;11.488;2023-11-19T04:28:13;10.30;1.00
4431;DHT22;2228;48.140;11.488;2023-11-19T04:30:43;10.30;1.00
4431;DHT22;2228;48.140;11.488;2023-11-19T04:33:10;11.40;1.00
4431;DHT22;2228;48.140;11.488;2023-11-19T04:35:37;10.30;1.00
4431;DHT22;2228;48.140;11.488;2023-11-19T04:38:07;10.30;1.00
4431;DHT22;2228;48.140;11.488;2023-11-19T04:40:34;10.20;1.00
4431;DHT22;2228;48.140;11.488;2023-11-19T04:43:01;10.30;1.00
4431;DHT22;2228;48.140;11.488;2023-11-19T04:45:28;11.80;1.00
4431;DHT22;2228;48.140;11.488;2023-11-19T04:47:58;10.50;7.60
4431;DHT22;2228;48.140;11.488;2023-11-19T04:50:25;10.30;1.00
4431;DHT22;2228;48.140;11.488;2023-11-19T04:52:54;10.30;23.50
4431;DHT22;2228;48.140;11.488;2023-11-19T04:55:21;10.30;7.60
4431;DHT22;2228;48.140;11.488;2023-11-19T04:57:49;10.40;1.00
4431;DHT22;2228;48.140;11.488;2023-11-19T05:00:18;10.70;1.00
4431;DHT22;2228;48.140;11.488;2023-11-19T05:02:45;10.30;5.60
4431;DHT22;2228;48.140;11.488;2023-11-19T05:05:19;10.60;1.00
4431;DHT22;2228;48.140;11.488;2023-11-19T05:07:47;10.40;1.00
4431;DHT22;2228;48.140;11.488;2023-11-19T05:10:14;10.40;1.00
4431;DHT22;2228;48.140;11.488;2023-11-19T05:12:43;10.40;1.00
4431;DHT22;2228;48.140;11.488;2023-11-19T05:15:10;10.00;1.00
4431;DHT22;2228;48.140;11.488;2023-11-19T05:17:40;10.30;1.00
4431;DHT22;2228;48.140;11.488;2023-11-19T05:20:09;10.40;1.00
4431;DHT22;2228;48.140;11.488;2023-11-19T05:22:41;10.30;1.00
4431;DHT22;2228;48.140;11.488;2023-11-19T05:25:08;10.30;1.00
4431;DHT22;2228;48.140;11.488;2023-11-19T05:27:49;10.40;1.00
4431;DHT22;2228;48.140;11.488;2023-11-19T05:30:18;10.30;1.00
4431;DHT22;2228;48.140;11.488;2023-11-19T05:32:45;10.30;1.00
4431;DHT22;2228;48.140;11.488;2023-11-19T05:35:14;10.60;1.00
4431;DHT22;2228;48.140;11.488;2023-11-19T05:37:43;10.20;1.00
4431;DHT22;2228;48.140;11.488;2023-11-19T05:40:10;10.30;1.00
4431;DHT22;2228;48.140;11.488;2023-11-19T06:58:17;10.50;1.00
4431;DHT22;2228;48.140;11.488;2023-11-19T07:00:44;10.50;1.00
4431;DHT22;2228;48.140;11.488;2023-11-19T07:03:13;10.50;1.00
4431;DHT22;2228;48.140;11.488;2023-11-19T07:05:40;11.30;1.00
4431;DHT22;2228;48.140;11.488;2023-11-19T07:08:07;11.10;1.00
4431;DHT22;2228;48.140;11.488;2023-11-19T07:10:34;10.70;1.00
4431;DHT22;2228;48.140;11.488;2023-11-19T07:13:01;10.70;1.00
4431;DHT22;2228;48.140;11.488;2023-11-19T07:15:29;10.80;1.00
4431;DHT22;2228;48.140;11.488;2023-11-19T07:17:56;10.70;1.00
4431;DHT22;2228;48.140;11.488;2023-11-19T07:20:24;10.90;1.00
4431;DHT22;2228;48.140;11.488;2023-11-19T07:22:52;10.90;1.00
4431;DHT22;2228;48.140;11.488;2023-11-19T07:25:20;11.70;1.00
4431;DHT22;2228;48.140;11.488;2023-11-19T07:27:47;10.90;1.00
4431;DHT22;2228;48.140;11.488;2023-11-19T07:30:14;10.90;1.00
4431;DHT22;2228;48.140;11.488;2023-11-19T07:32:45;10.90;1.00
4431;DHT22;2228;48.140;11.488;2023-11-19T07:35:11;10.80;1.00
4431;DHT22;2228;48.140;11.488;2023-11-19T07:37:38;11.00;1.00
4431;DHT22;2228;48.140;11.488;2023-11-19T07:40:07;11.00;1.00
4431;DHT22;2228;48.140;11.488;2023-11-19T07:42:34;10.90;1.00
4431;DHT22;2228;48.140;11.488;2023-11-19T07:45:01;11.00;1.00
4431;DHT22;2228;48.140;11.488;2023-11-19T07:47:28;11.40;1.00
4431;DHT22;2228;48.140;11.488;2023-11-19T07:49:56;11.10;1.00
4431;DHT22;2228;48.140;11.488;2023-11-19T07:52:23;11.40;1.00
4431;DHT22;2228;48.140;11.488;2023-11-19T07:54:50;11.20;1.00
4431;DHT22;2228;48.140;11.488;2023-11-19T07:57:17;11.20;1.00
4431;DHT22;2228;48.140;11.488;2023-11-19T07:59:44;11.20;1.00
4431;DHT22;2228;48.140;11.488;2023-11-19T08:02:11;11.30;1.00
4431;DHT22;2228;48.140;11.488;2023-11-19T08:04:38;11.30;1.00
4431;DHT22;2228;48.140;11.488;2023-11-19T08:07:11;11.30;1.00
4431;DHT22;2228;48.140;11.488;2023-11-19T08:09:38;11.40;1.00
4431;DHT22;2228;48.140;11.488;2023-11-19T08:12:06;11.40;1.00
4431;DHT22;2228;48.140;11.488;2023-11-19T08:14:35;11.40;1.00
4431;DHT22;2228;48.140;11.488;2023-11-19T08:17:02;11.40;1.00
4431;DHT22;2228;48.140;11.488;2023-11-19T08:19:30;11.60;1.00
4431;DHT22;2228;48.140;11.488;2023-11-19T08:21:56;11.60;1.00
4431;DHT22;2228;48.140;11.488;2023-11-19T08:24:25;11.60;1.00
4431;DHT22;2228;48.140;11.488;2023-11-19T08:26:52;11.70;1.00
4431;DHT22;2228;48.140;11.488;2023-11-19T08:29:19;11.90;1.00
4431;DHT22;2228;48.140;11.488;2023-11-19T08:31:47;12.00;1.00
4431;DHT22;2228;48.140;11.488;2023-11-19T08:34:13;12.00;1.00
4431;DHT22;2228;48.140;11.488;2023-11-19T08:36:41;13.60;1.00
4431;DHT22;2228;48.140;11.488;2023-11-19T08:39:08;12.00;1.00
4431;DHT22;2228;48.140;11.488;2023-11-19T08:41:36;12.10;1.00
4431;DHT22;2228;48.140;11.488;2023-11-19T08:44:05;12.30;99.90
4431;DHT22;2228;48.140;11.488;2023-11-19T08:46:32;12.20;1.00
4431;DHT22;2228;48.140;11.488;2023-11-19T08:48:59;12.30;99.90
4431;DHT22;2228;48.140;11.488;2023-11-19T08:51:28;12.50;99.90
4431;DHT22;2228;48.140;11.488;2023-11-19T08:53:55;12.40;99.90
4431;DHT22;2228;48.140;11.488;2023-11-19T08:56:23;12.40;99.90
4431;DHT22;2228;48.140;11.488;2023-11-19T08:58:52;12.40;99.90
4431;DHT22;2228;48.140;11.488;2023-11-19T09:01:19;12.40;99.90
4431;DHT22;2228;48.140;11.488;2023-11-19T09:03:45;12.50;99.90
4431;DHT22;2228;48.140;11.488;2023-11-19T09:06:12;12.70;99.90
4431;DHT22;2228;48.140;11.488;2023-11-19T09:08:39;12.60;99.90
4431;DHT22;2228;48.140;11.488;2023-11-19T09:11:07;12.60;99.90
4431;DHT22;2228;48.140;11.488;2023-11-19T09:13:34;12.50;99.90
4431;DHT22;2228;48.140;11.488;2023-11-19T09:16:03;12.50;99.90
4431;DHT22;2228;48.140;11.488;2023-11-19T09:18:30;12.40;99.90
4431;DHT22;2228;48.140;11.488;2023-11-19T09:20:57;12.50;99.90
4431;DHT22;2228;48.140;11.488;2023-11-19T09:23:25;13.10;99.90
4431;DHT22;2228;48.140;11.488;2023-11-19T09:25:53;14.60;99.90
4431;DHT22;2228;48.140;11.488;2023-11-19T09:28:21;14.80;1.00
4431;DHT22;2228;48.140;11.488;2023-11-19T09:30:48;13.40;99.90
4431;DHT22;2228;48.140;11.488;2023-11-19T09:33:18;12.60;99.90
4431;DHT22;2228;48.140;11.488;2023-11-19T09:35:46;12.80;99.90
4431;DHT22;2228;48.140;11.488;2023-11-19T09:38:15;12.90;99.90
4431;DHT22;2228;48.140;11.488;2023-11-19T09:40:42;14.60;99.90
4431;DHT22;2228;48.140;11.488;2023-11-19T09:43:09;12.60;99.90
4431;DHT22;2228;48.140;11.488;2023-11-19T09:45:48;12.40;1.00
4431;DHT22;2228;48.140;11.488;2023-11-19T09:48:18;12.30;1.00
4431;DHT22;2228;48.140;11.488;2023-11-19T09:50:47;12.30;1.00
4431;DHT22;2228;48.140;11.488;2023-11-19T09:53:15;14.40;1.00
4431;DHT22;2228;48.140;11.488;2023-11-19T09:55:43;12.90;1.00
4431;DHT22;2228;48.140;11.488;2023-11-19T09:58:11;12.50;1.00
4431;DHT22;2228;48.140;11.488;2023-11-19T10:00:39;13.10;1.00
4431;DHT22;2228;48.140;11.488;2023-11-19T10:03:07;13.70;1.00
4431;DHT22;2228;48.140;11.488;2023-11-19T10:05:37;12.90;99.90
4431;DHT22;2228;48.140;11.488;2023-11-19T10:08:18;13.00;99.90
4431;DHT22;2228;48.140;11.488;2023-11-19T10:10:45;14.00;99.90
4431;DHT22;2228;48.140;11.488;2023-11-19T10:13:13;13.60;99.90
4431;DHT22;2228;48.140;11.488;2023-11-19T10:15:40;15.30;99.90
4431;DHT22;2228;48.140;11.488;2023-11-19T10:18:08;13.50;99.90
4431;DHT22;2228;48.140;11.488;2023-11-19T10:20:37;13.50;99.90
4431;DHT22;2228;48.140;11.488;2023-11-19T10:23:07;13.90;99.90
4431;DHT22;2228;48.140;11.488;2023-11-19T10:25:34;13.70;99.90
4431;DHT22;2228;48.140;11.488;2023-11-19T10:28:02;13.70;99.90
4431;DHT22;2228;48.140;11.488;2023-11-19T10:30:30;13.60;99.90
4431;DHT22;2228;48.140;11.488;2023-11-19T10:33:06;14.20;99.90
4431;DHT22;2228;48.140;11.488;2023-11-19T10:35:33;13.70;99.90
4431;DHT22;2228;48.140;11.488;2023-11-19T10:38:13;13.70;99.90
4431;DHT22;2228;48.140;11.488;2023-11-19T10:40:41;16.00;99.90
4431;DHT22;2228;48.140;11.488;2023-11-19T10:43:08;14.30;99.90
4431;DHT22;2228;48.140;11.488;2023-11-19T10:45:35;14.70;99.90
4431;DHT22;2228;48.140;11.488;2023-11-19T10:48:04;14.90;99.90
4431;DHT22;2228;48.140;11.488;2023-11-19T10:50:33;14.90;71.10
4431;DHT22;2228;48.140;11.488;2023-11-19T10:53:16;14.80;99.90
4431;DHT22;2228;48.140;11.488;2023-11-19T10:55:47;14.80;97.10
4431;DHT22;2228;48.140;11.488;2023-11-19T10:58:16;14.80;79.10
4431;DHT22;2228;48.140;11.488;2023-11-19T11:00:44;14.60;99.90
4431;DHT22;2228;48.140;11.488;2023-11-19T11:03:16;14.30;99.90
4431;DHT22;2228;48.140;11.488;2023-11-19T11:05:46;14.60;99.90
4431;DHT22;2228;48.140;11.488;2023-11-19T11:08:15;14.20;99.90
4431;DHT22;2228;48.140;11.488;2023-11-19T11:10:44;14.20;99.90
4431;DHT22;2228;48.140;11.488;2023-11-19T11:13:14;14.40;99.90
4431;DHT22;2228;48.140;11.488;2023-11-19T11:15:41;14.50;98.20
4431;DHT22;2228;48.140;11.488;2023-11-19T11:18:09;14.60;99.90
4431;DHT22;2228;48.140;11.488;2023-11-19T11:20:36;15.00;98.40
4431;DHT22;2228;48.140;11.488;2023-11-19T11:23:32;14.80;73.30
4431;DHT22;2228;48.140;11.488;2023-11-19T11:26:15;14.90;63.80
4431;DHT22;2228;48.140;11.488;2023-11-19T11:28:52;15.10;27.90
4431;DHT22;2228;48.140;11.488;2023-11-19T11:31:31;15.10;19.40
4431;DHT22;2228;48.140;11.488;2023-11-19T11:34:21;14.70;57.50
4431;DHT22;2228;48.140;11.488;2023-11-19T11:36:58;14.60;92.50
4431;DHT22;2228;48.140;11.488;2023-11-19T11:39:31;16.30;54.00
4431;DHT22;2228;48.140;11.488;2023-11-19T11:42:32;14.40;97.40
4431;DHT22;2228;48.140;11.488;2023-11-19T11:45:00;14.50;94.40
4431;DHT22;2228;48.140;11.488;2023-11-19T11:50:29;14.40;75.70
4431;DHT22;2228;48.140;11.488;2023-11-19T11:53:19;14.40;76.10
4431;DHT22;2228;48.140;11.488;2023-11-19T11:55:57;14.40;99.90
4431;DHT22;2228;48.140;11.488;2023-11-19T11:58:30;14.50;91.90
4431;DHT22;2228;48.140;11.488;2023-11-19T12:00:59;14.40;50.50
4431;DHT22;2228;48.140;11.488;2023-11-19T12:03:28;14.60;50.60
4431;DHT22;2228;48.140;11.488;2023-11-19T12:05:57;15.60;53.60
4431;DHT22;2228;48.140;11.488;2023-11-19T12:08:26;14.70;75.00
4431;DHT22;2228;48.140;11.488;2023-11-19T12:10:56;14.20;20.60
4431;DHT22;2228;48.140;11.488;2023-11-19T12:13:29;14.60;9.10
4431;DHT22;2228;48.140;11.488;2023-11-19T12:16:10;14.60;1.00
4431;DHT22;2228;48.140;11.488;2023-11-19T12:18:39;14.80;1.00
4431;DHT22;2228;48.140;11.488;2023-11-19T12:21:08;16.00;1.00
4431;DHT22;2228;48.140;11.488;2023-11-19T12:23:45;16.00;1.00
4431;DHT22;2228;48.140;11.488;2023-11-19T12:26:34;16.00;1.00
4431;DHT22;2228;48.140;11.488;2023-11-19T12:29:02;16.30;1.00
4431;DHT22;2228;48.140;11.488;2023-11-19T12:31:32;16.00;1.00
4431;DHT22;2228;48.140;11.488;2023-11-19T12:34:06;15.60;1.00
4431;DHT22;2228;48.140;11.488;2023-11-19T12:36:38;15.50;1.00
4431;DHT22;2228;48.140;11.488;2023-11-19T12:39:05;15.10;1.00
4431;DHT22;2228;48.140;11.488;2023-11-19T12:41:49;15.10;1.00
4431;DHT22;2228;48.140;11.488;2023-11-19T12:44:16;15.30;1.00
4431;DHT22;2228;48.140;11.488;2023-11-19T12:46:43;15.90;1.00
4431;DHT22;2228;48.140;11.488;2023-11-19T12:49:11;16.40;1.00
4431;DHT22;2228;48.140;11.488;2023-11-19T12:51:39;16.40;1.00
4431;DHT22;2228;48.140;11.488;2023-11-19T12:54:06;16.10;1.00
4431;DHT22;2228;48.140;11.488;2023-11-19T12:56:35;16.20;1.00
4431;DHT22;2228;48.140;11.488;2023-11-19T12:59:12;16.30;1.00
4431;DHT22;2228;48.140;11.488;2023-11-19T13:01:40;15.40;1.00
4431;DHT22;2228;48.140;11.488;2023-11-19T13:04:17;15.40;1.00
4431;DHT22;2228;48.140;11.488;2023-11-19T13:06:45;15.30;1.00
4431;DHT22;2228;48.140;11.488;2023-11-19T13:09:21;15.40;1.00
4431;DHT22;2228;48.140;11.488;2023-11-19T13:11:50;14.70;1.00
4431;DHT22;2228;48.140;11.488;2023-11-19T13:14:18;14.70;1.00
4431;DHT22;2228;48.140;11.488;2023-11-19T13:16:45;14.60;1.00
4431;DHT22;2228;48.140;11.488;2023-11-19T13:19:13;14.50;1.00
4431;DHT22;2228;48.140;11.488;2023-11-19T13:21:42;14.50;1.00
4431;DHT22;2228;48.140;11.488;2023-11-19T13:24:11;14.60;1.00
4431;DHT22;2228;48.140;11.488;2023-11-19T13:26:38;14.70;1.00
4431;DHT22;2228;48.140;11.488;2023-11-19T13:29:06;14.70;1.00
4431;DHT22;2228;48.140;11.488;2023-11-19T13:31:36;15.30;1.00
4431;DHT22;2228;48.140;11.488;2023-11-19T13:34:03;14.70;1.00
4431;DHT22;2228;48.140;11.488;2023-11-19T13:36:32;14.80;1.00
4431;DHT22;2228;48.140;11.488;2023-11-19T13:38:59;14.60;1.00
4431;DHT22;2228;48.140;11.488;2023-11-19T13:41:27;14.50;1.00
4431;DHT22;2228;48.140;11.488;2023-11-19T13:43:54;14.50;1.00
4431;DHT22;2228;48.140;11.488;2023-11-19T13:46:22;14.80;1.00
4431;DHT22;2228;48.140;11.488;2023-11-19T13:48:49;14.10;6.40
4431;DHT22;2228;48.140;11.488;2023-11-19T13:51:16;14.40;1.00
4431;DHT22;2228;48.140;11.488;2023-11-19T13:53:43;14.20;14.60
4431;DHT22;2228;48.140;11.488;2023-11-19T13:56:10;16.00;46.80
4431;DHT22;2228;48.140;11.488;2023-11-19T13:58:37;14.20;41.10
4431;DHT22;2228;48.140;11.488;2023-11-19T14:01:06;14.20;57.10
4431;DHT22;2228;48.140;11.488;2023-11-19T14:03:34;13.90;54.80
4431;DHT22;2228;48.140;11.488;2023-11-19T14:06:01;14.10;98.10
4431;DHT22;2228;48.140;11.488;2023-11-19T14:08:28;14.00;53.60
4431;DHT22;2228;48.140;11.488;2023-11-19T14:10:55;13.90;66.20
4431;DHT22;2228;48.140;11.488;2023-11-19T14:13:23;14.10;73.60
4431;DHT22;2228;48.140;11.488;2023-11-19T14:15:50;14.40;35.10
4431;DHT22;2228;48.140;11.488;2023-11-19T14:18:17;14.20;38.30
4431;DHT22;2228;48.140;11.488;2023-11-19T14:20:45;14.20;43.90
4431;DHT22;2228;48.140;11.488;2023-11-19T14:23:12;14.20;41.10
4431;DHT22;2228;48.140;11.488;2023-11-19T14:25:39;14.60;51.00
4431;DHT22;2228;48.140;11.488;2023-11-19T14:28:06;14.90;43.70
4431;DHT22;2228;48.140;11.488;2023-11-19T14:30:34;14.20;40.40
4431;DHT22;2228;48.140;11.488;2023-11-19T14:33:01;14.20;24.40
4431;DHT22;2228;48.140;11.488;2023-11-19T14:35:28;14.00;22.80
4431;DHT22;2228;48.140;11.488;2023-11-19T14:37:59;15.30;5.90
4431;DHT22;2228;48.140;11.488;2023-11-19T14:40:30;13.90;1.00
4431;DHT22;2228;48.140;11.488;2023-11-19T14:42:57;14.20;1.00
4431;DHT22;2228;48.140;11.488;2023-11-19T14:45:24;14.70;13.00
4431;DHT22;2228;48.140;11.488;2023-11-19T14:47:51;14.20;11.70
4431;DHT22;2228;48.140;11.488;2023-11-19T14:50:19;14.10;18.70
4431;DHT22;2228;48.140;11.488;2023-11-19T14:52:46;14.00;18.90
4431;DHT22;2228;48.140;11.488;2023-11-19T14:55:15;14.30;24.70
4431;DHT22;2228;48.140;11.488;2023-11-19T14:57:42;13.80;52.30
4431;DHT22;2228;48.140;11.488;2023-11-19T15:00:10;13.80;37.90
4431;DHT22;2228;48.140;11.488;2023-11-19T15:02:40;13.70;55.20
4431;DHT22;2228;48.140;11.488;2023-11-19T15:05:08;13.60;64.40
4431;DHT22;2228;48.140;11.488;2023-11-19T15:07:36;13.60;52.80
4431;DHT22;2228;48.140;11.488;2023-11-19T15:10:04;13.40;69.90
4431;DHT22;2228;48.140;11.488;2023-11-19T15:12:36;13.40;76.50
4431;DHT22;2228;48.140;11.488;2023-11-19T15:15:07;13.50;86.00
4431;DHT22;2228;48.140;11.488;2023-11-19T15:17:34;13.30;93.00
4431;DHT22;2228;48.140;11.488;2023-11-19T15:20:03;13.30;99.90
4431;DHT22;2228;48.140;11.488;2023-11-19T15:22:30;13.30;98.30
4431;DHT22;2228;48.140;11.488;2023-11-19T15:24:58;13.30;99.90
4431;DHT22;2228;48.140;11.488;2023-11-19T15:27:24;13.00;99.90
4431;DHT22;2228;48.140;11.488;2023-11-19T15:29:52;12.90;99.90
4431;DHT22;2228;48.140;11.488;2023-11-19T15:32:19;13.00;99.90
4431;DHT22;2228;48.140;11.488;2023-11-19T15:34:49;12.90;99.90
4431;DHT22;2228;48.140;11.488;2023-11-19T15:37:16;12.60;99.90
4431;DHT22;2228;48.140;11.488;2023-11-19T15:39:43;13.30;99.90
4431;DHT22;2228;48.140;11.488;2023-11-19T15:42:10;13.00;99.90
4431;DHT22;2228;48.140;11.488;2023-11-19T15:44:37;12.60;99.90
4431;DHT22;2228;48.140;11.488;2023-11-19T15:47:06;12.70;99.90
4431;DHT22;2228;48.140;11.488;2023-11-19T15:49:33;12.60;99.90
4431;DHT22;2228;48.140;11.488;2023-11-19T15:52:00;12.60;99.90
4431;DHT22;2228;48.140;11.488;2023-11-19T15:54:27;12.50;99.90
4431;DHT22;2228;48.140;11.488;2023-11-19T15:56:54;12.40;99.90
4431;DHT22;2228;48.140;11.488;2023-11-19T15:59:21;12.40;99.90
4431;DHT22;2228;48.140;11.488;2023-11-19T16:01:48;12.30;99.90
4431;DHT22;2228;48.140;11.488;2023-11-19T16:04:16;12.40;99.90
4431;DHT22;2228;48.140;11.488;2023-11-19T16:06:43;12.50;99.90
4431;DHT22;2228;48.140;11.488;2023-11-19T16:09:10;12.50;99.90
4431;DHT22;2228;48.140;11.488;2023-11-19T16:11:41;12.60;99.90
4431;DHT22;2228;48.140;11.488;2023-11-19T16:14:10;12.70;99.90
4431;DHT22;2228;48.140;11.488;2023-11-19T16:16:37;12.70;99.90
4431;DHT22;2228;48.140;11.488;2023-11-19T16:19:05;12.90;99.90
4431;DHT22;2228;48.140;11.488;2023-11-19T16:21:33;13.10;99.90
4431;DHT22;2228;48.140;11.488;2023-11-19T16:24:02;12.70;99.90
4431;DHT22;2228;48.140;11.488;2023-11-19T16:26:30;12.60;99.90
4431;DHT22;2228;48.140;11.488;2023-11-19T16:29:04;12.40;99.90
4431;DHT22;2228;48.140;11.488;2023-11-19T16:31:31;12.40;99.90
4431;DHT22;2228;48.140;11.488;2023-11-19T16:33:59;12.40;99.90
4431;DHT22;2228;48.140;11.488;2023-11-19T16:36:28;12.40;99.90
4431;DHT22;2228;48.140;11.488;2023-11-19T16:38:56;12.20;99.90
4431;DHT22;2228;48.140;11.488;2023-11-19T16:41:23;12.00;99.90
4431;DHT22;2228;48.140;11.488;2023-11-19T16:43:50;12.10;99.90
4431;DHT22;2228;48.140;11.488;2023-11-19T16:46:20;12.00;99.90
4431;DHT22;2228;48.140;11.488;2023-11-19T16:48:47;12.00;99.90
4431;DHT22;2228;48.140;11.488;2023-11-19T16:51:15;12.10;99.90
4431;DHT22;2228;48.140;11.488;2023-11-19T16:53:45;12.00;99.90
4431;DHT22;2228;48.140;11.488;2023-11-19T16:56:14;12.00;99.90
4431;DHT22;2228;48.140;11.488;2023-11-19T16:58:43;13.10;99.90
4431;DHT22;2228;48.140;11.488;2023-11-19T17:01:10;12.00;99.90
4431;DHT22;2228;48.140;11.488;2023-11-19T17:03:38;12.00;99.90
4431;DHT22;2228;48.140;11.488;2023-11-19T17:06:06;12.00;99.90
4431;DHT22;2228;48.140;11.488;2023-11-19T17:08:33;12.10;99.90
4431;DHT22;2228;48.140;11.488;2023-11-19T17:11:04;12.20;99.90
4431;DHT22;2228;48.140;11.488;2023-11-19T17:13:56;12.10;99.90
4431;DHT22;2228;48.140;11.488;2023-11-19T17:16:23;10.90;99.90
4431;DHT22;2228;48.140;11.488;2023-11-19T17:18:50;11.20;99.90
4431;DHT22;2228;48.140;11.488;2023-11-19T17:21:17;12.10;99.90
4431;DHT22;2228;48.140;11.488;2023-11-19T17:23:44;11.90;99.90
4431;DHT22;2228;48.140;11.488;2023-11-19T17:26:11;12.10;99.90
4431;DHT22;2228;48.140;11.488;2023-11-19T17:28:40;12.10;99.90